Flight Track Log - Related Links

Times and Time Zones

All times are in EST time to prevent confusion due to time zone crossing. See the N258PA flight status page for this flight to view local times or setup timezone preferences in your user account.

Time Position Orientation Groundspeed Altitude Reporting Facility
EST Latitude Longitude Course Direction KTS MPH feet Rate Location/Type
Sat 04:17:00 PM 42.7492 -73.8258 347° North 90 104 500  Level Boston Center
Sat 04:17:42 PM 42.7656 -73.8311 347° North 101 116 800 476 Climbing Boston Center
Sat 04:18:03 PM 42.7756 -73.8308 North 104 120 1,000 436 Climbing Boston Center
Sat 04:18:37 PM 42.7911 -73.8311 359° North 107 123 1,200 581 Climbing Boston Center
Sat 04:19:05 PM 42.8031 -73.8300 North 99 114 1,600 700 Climbing Boston Center
Sat 04:19:37 PM 42.8189 -73.8319 355° North 101 116 1,900 689 Climbing Boston Center
Sat 04:20:06 PM 42.8339 -73.8336 355° North 103 119 2,300 590 Climbing Boston Center
Sat 04:20:38 PM 42.8458 -73.8381 345° North 95 109 2,500 393 Climbing Boston Center
Sat 04:21:07 PM 42.8606 -73.8425 348° North 100 115 2,700 492 Climbing Boston Center
Sat 04:21:39 PM 42.8719 -73.8469 344° North 99 114 3,000 590 Climbing Boston Center
Sat 04:22:08 PM 42.8853 -73.8536 340° North 94 108 3,300 556 Climbing Boston Center
Sat 04:22:33 PM 42.8958 -73.8581 343° North 95 109 3,500 484 Climbing Boston Center
Sat 04:23:10 PM 42.9100 -73.8653 340° North 94 108 3,800 492 Climbing Boston Center
Sat 04:23:34 PM 42.9197 -73.8689 345° North 91 105 4,000 393 Climbing Boston Center
Sat 04:24:11 PM 42.9342 -73.8750 343° North 92 106 4,200 500 Climbing Boston Center
Sat 04:24:34 PM 42.9433 -73.8800 338° Northwest 94 108 4,500 590 Climbing Boston Center
Sat 04:25:12 PM 42.9625 -73.8850 349° North 97 112 4,800 393 Climbing Boston Center
Sat 04:25:35 PM 42.9717 -73.8897 339° North 93 107 4,900 393 Climbing Boston Center
Sat 04:26:13 PM 42.9858 -73.8969 340° North 92 106 5,200 393 Climbing Boston Center
Sat 04:26:36 PM 42.9950 -73.9033 333° Northwest 91 105 5,300 290 Climbing Boston Center
Sat 04:27:15 PM 43.0092 -73.9092 343° North 89 102 5,500 393 Climbing Boston Center
Sat 04:27:37 PM 43.0186 -73.9144 338° Northwest 89 102 5,700 393 Climbing Boston Center
Sat 04:28:16 PM 43.0325 -73.9231 336° Northwest 92 106 5,900 400 Climbing Boston Center
Sat 04:28:37 PM 43.0419 -73.9283 338° Northwest 91 105 6,100 295 Climbing Boston Center
Sat 04:29:17 PM 43.0564 -73.9336 345° North 89 102 6,200 295 Climbing Boston Center
Sat 04:29:38 PM 43.0656 -73.9392 336° Northwest 91 105 6,400 393 Climbing Boston Center
Sat 04:30:18 PM 43.0822 -73.9450 346° North 89 102 6,600 295 Climbing Boston Center
Sat 04:30:39 PM 43.0900 -73.9475 347° North 92 106 6,700 393 Climbing Boston Center
Sat 04:31:19 PM 43.1092 -73.9522 350° North 98 113 7,000 455 Climbing Boston Center
Sat 04:31:45 PM 43.1186 -73.9544 350° North 96 110 7,200 387 Climbing Boston Center
Sat 04:32:21 PM 43.1350 -73.9597 347° North 95 109 7,400 393 Climbing Boston Center
Sat 04:32:46 PM 43.1450 -73.9636 344° North 96 110 7,600 295 Climbing Boston Center
Sat 04:33:22 PM 43.1592 -73.9694 343° North 89 102 7,700 197 Climbing Boston Center
Sat 04:33:47 PM 43.1686 -73.9744 339° North 89 102 7,800 197 Climbing Boston Center
Sat 04:34:23 PM 43.1828 -73.9806 343° North 90 104 7,900 200 Climbing Boston Center
Sat 04:34:47 PM 43.1944 -73.9864 340° North 89 102 8,000 98 Climbing Boston Center
Sat 04:35:24 PM 43.2058 -73.9939 334° Northwest 90 104 8,000  Level Boston Center
Sat 04:35:48 PM 43.2178 -74.0003 339° North 90 104 8,000 -197 Level Boston Center
Sat 04:36:25 PM 43.2317 -74.0078 339° North 93 107 7,800 -184 Descending Boston Center
Sat 04:37:26 PM 43.2572 -74.0217 338° Northwest 98 113 7,700 -49 Descending Boston Center
Sat 04:38:27 PM 43.2806 -74.0353 337° Northwest 90 104 7,700 -98 Level Boston Center
Sat 04:39:28 PM 43.3061 -74.0475 341° North 95 109 7,500 -293 Descending Boston Center
Sat 04:40:30 PM 43.3292 -74.0606 338° Northwest 94 108 7,100 -293 Descending Boston Center
Sat 04:41:31 PM 43.3586 -74.0761 339° North 107 123 6,900 -197 Descending Boston Center
Sat 04:42:32 PM 43.3842 -74.0883 341° North 98 113 6,700 -148 Descending Boston Center
Sat 04:43:33 PM 43.4056 -74.0994 339° North 97 112 6,600 -148 Descending Boston Center
Sat 04:44:34 PM 43.4347 -74.1139 340° North 105 121 6,400 -148 Descending Boston Center
Sat 04:45:35 PM 43.4703 -74.1231 349° North 109 125 6,300 -148 Descending Boston Center
Sat 04:46:36 PM 43.4969 -74.1356 341° North 104 120 6,100  Descending Boston Center
Sat 04:47:38 PM 43.5253 -74.1456 346° North 104 120 6,300 98 Climbing Boston Center
Sat 04:48:39 PM 43.5500 -74.1569 342° North 98 113 6,300  Level Boston Center
Sat 04:49:40 PM 43.5781 -74.1689 343° North 102 117 6,300 -98 Level Boston Center
Sat 04:50:41 PM 43.6058 -74.1775 347° North 103 119 6,100 -197 Descending Boston Center
Sat 04:51:42 PM 43.6353 -74.1872 347° North 105 121 5,900  Descending Boston Center
Sat 04:52:43 PM 43.6636 -74.1881 359° North 105 121 6,100 244 Climbing Boston Center
Sat 04:53:45 PM 43.6903 -74.1889 359° North 102 117 6,400 244 Climbing Boston Center
Sat 04:54:46 PM 43.7178 -74.1939 353° North 99 114 6,600 49 Climbing Boston Center
Sat 04:55:47 PM 43.7481 -74.2122 336° Northwest 98 113 6,500 -49 Descending Boston Center
Sat 04:56:48 PM 43.7747 -74.2269 338° Northwest 101 116 6,500 -148 Level Boston Center
Sat 04:57:49 PM 43.8022 -74.2444 335° Northwest 106 122 6,200 -197 Descending Boston Center
Sat 04:58:50 PM 43.8292 -74.2617 335° Northwest 107 123 6,100 -148 Descending Boston Center
Sat 04:59:51 PM 43.8542 -74.2808 331° Northwest 106 122 5,900 -195 Descending Boston Center
Sat 05:00:53 PM 43.8775 -74.3014 328° Northwest 103 119 5,700 -98 Descending Boston Center
Sat 05:01:54 PM 43.9056 -74.3150 341° North 104 120 5,700  Level Boston Center
Sat 05:02:55 PM 43.9347 -74.3269 344° North 108 124 5,700 98 Level Boston Center
Sat 05:03:56 PM 43.9614 -74.3400 341° North 105 121 5,900 49 Climbing Boston Center
Sat 05:04:57 PM 43.9856 -74.3544 337° Northwest 99 114 5,800 -49 Descending Boston Center
Sat 05:05:59 PM 44.0153 -74.3761 332° Northwest 99 114 5,800  Level Boston Center
Sat 05:07:00 PM 44.0444 -74.3939 336° Northwest 109 125 5,800 -49 Level Boston Center
Sat 05:08:01 PM 44.0725 -74.4086 339° North 109 125 5,700 -49 Descending Boston Center
Sat 05:09:02 PM 44.0975 -74.4233 337° Northwest 103 119 5,700 -49 Level Boston Center
Sat 05:10:04 PM 44.1250 -74.4403 336° Northwest 105 121 5,600 -146 Descending Boston Center
Sat 05:11:05 PM 44.1508 -74.4553 337° Northwest 104 120 5,400 -197 Descending Boston Center
Sat 05:12:06 PM 44.1767 -74.4725 334° Northwest 103 119 5,200 -49 Descending Boston Center
Sat 05:13:07 PM 44.2028 -74.4872 338° Northwest 102 117 5,300 98 Climbing Boston Center
Sat 05:14:08 PM 44.2275 -74.5067 331° Northwest 103 119 5,400 98 Climbing Boston Center
Sat 05:15:10 PM 44.2544 -74.5308 327° Northwest 99 114 5,500 98 Climbing Boston Center
Sat 05:16:11 PM 44.2803 -74.5428 342° North 98 113 5,600 49 Climbing Boston Center
Sat 05:17:12 PM 44.3078 -74.5497 350° North 101 116 5,600 -98 Level Boston Center
Sat 05:18:13 PM 44.3358 -74.5672 336° Northwest 106 122 5,400 -146 Descending Boston Center
Sat 05:19:15 PM 44.3569 -74.5875 326° Northwest 99 114 5,300 -195 Descending Boston Center
Sat 05:20:16 PM 44.3761 -74.6128 317° Northwest 94 108 5,000 -295 Descending Boston Center
Sat 05:21:17 PM 44.3961 -74.6367 320° Northwest 95 109 4,700 -295 Descending Boston Center
Sat 05:22:18 PM 44.4200 -74.6617 323° Northwest 94 108 4,400 -295 Descending Boston Center
Sat 05:23:19 PM 44.4381 -74.6792 325° Northwest 93 107 4,100 -195 Descending Boston Center
Sat 05:24:21 PM 44.4617 -74.7044 323° Northwest 93 107 4,000 -97 Descending Boston Center

Login

Don't have an account? Register now (free) for customized features, flight alerts, and more!